Time;durP1;ratioP1;P1;durP2;ratioP2;P2;SDS_P1;SDS_P2;PMS_P1;PMS_P2;Temp;Humidity;BMP_temperature;BMP_pressure;BME280_temperature;BME280_humidity;BME280_pressure;Samples;Min_cycle;Max_cycle;Signal;HPM_P1;HPM_P2
2021/09/30 00:01:14;;;;;;;2.92;1.75;;;;;;;;;;5030216;28;20108;-73
2021/09/30 00:03:39;;;;;;;1.83;1.40;;;;;;;;;;5030067;28;20021;-72
2021/09/30 00:06:06;;;;;;;4.25;1.58;;;;;;;;;;5029506;28;20389;-74
2021/09/30 00:08:32;;;;;;;3.45;1.38;;;;;;;;;;5029071;28;20025;-73
2021/09/30 00:11:08;;;;;;;4.65;1.20;;;;;;;;;;5030385;28;20025;-73
2021/09/30 00:35:25;;;;;;;3.38;1.30;;;;;;;;;;5029994;28;20041;-74
2021/09/30 00:41:10;;;;;;;5.07;1.70;;;;;;;;;;5029970;28;20040;-74
2021/09/30 00:46:11;;;;;;;3.17;1.05;;;;;;;;;;5029702;28;20592;-74
2021/09/30 00:51:20;;;;;;;2.90;1.35;;;;;;;;;;5029446;28;20075;-74
2021/09/30 02:58:33;;;;;;;2.53;1.50;;;;;;;;;;5031446;28;20511;-72
2021/09/30 03:01:08;;;;;;;4.50;1.50;;;;;;;;;;5029892;28;20365;-73
2021/09/30 03:03:36;;;;;;;5.77;1.73;;;;;;;;;;5030002;28;20026;-73
2021/09/30 03:06:04;;;;;;;3.07;1.60;;;;;;;;;;5030996;28;20029;-73
2021/09/30 03:08:31;;;;;;;5.33;2.93;;;;;;;;;;5029861;28;20108;-73
2021/09/30 03:11:00;;;;;;;3.13;1.67;;;;;;;;;;5029861;28;20497;-72
2021/09/30 03:13:28;;;;;;;4.10;2.17;;;;;;;;;;5031099;28;20021;-72
2021/09/30 03:15:58;;;;;;;6.83;2.93;;;;;;;;;;5029827;28;20029;-72
2021/09/30 03:23:33;;;;;;;4.10;2.30;;;;;;;;;;5031822;28;20010;-72
2021/09/30 03:26:00;;;;;;;5.33;1.60;;;;;;;;;;5030082;28;20061;-72
2021/09/30 03:28:26;;;;;;;6.93;2.20;;;;;;;;;;5031052;28;20022;-71
2021/09/30 03:30:54;;;;;;;3.97;1.80;;;;;;;;;;5029424;28;20029;-72
2021/09/30 03:33:22;;;;;;;7.50;2.43;;;;;;;;;;5029094;28;20140;-71
2021/09/30 03:35:48;;;;;;;3.97;2.38;;;;;;;;;;5030906;28;20524;-72
2021/09/30 03:38:14;;;;;;;4.70;2.03;;;;;;;;;;5030057;28;20104;-71
2021/09/30 03:40:42;;;;;;;4.80;1.63;;;;;;;;;;5029143;28;20036;-72
2021/09/30 03:43:09;;;;;;;4.47;2.20;;;;;;;;;;5030521;28;20075;-72
2021/09/30 03:45:35;;;;;;;4.93;3.30;;;;;;;;;;5029036;28;20057;-72
2021/09/30 03:48:02;;;;;;;5.40;2.10;;;;;;;;;;5030016;28;20030;-72
2021/09/30 03:50:31;;;;;;;10.18;2.50;;;;;;;;;;5029409;28;20120;-74
2021/09/30 04:00:59;;;;;;;11.20;3.83;;;;;;;;;;5030226;28;20164;-72
2021/09/30 04:03:25;;;;;;;25.57;3.63;;;;;;;;;;5029457;28;20108;-73
2021/09/30 04:05:51;;;;;;;25.17;4.30;;;;;;;;;;5029125;28;20110;-73
2021/09/30 04:08:16;;;;;;;5.50;2.87;;;;;;;;;;5028656;28;20025;-74
2021/09/30 04:10:42;;;;;;;8.00;2.20;;;;;;;;;;5028582;28;20030;-74
2021/09/30 04:13:08;;;;;;;6.67;2.20;;;;;;;;;;5029809;28;20076;-74
2021/09/30 04:15:33;;;;;;;6.40;2.23;;;;;;;;;;5028821;28;20026;-74
2021/09/30 04:17:59;;;;;;;6.53;3.13;;;;;;;;;;5030059;28;20083;-72
2021/09/30 04:20:25;;;;;;;4.23;3.27;;;;;;;;;;5028683;28;20024;-74
2021/09/30 04:22:50;;;;;;;17.60;6.17;;;;;;;;;;5028635;28;20061;-72
2021/09/30 04:25:15;;;;;;;7.77;3.30;;;;;;;;;;5027757;28;20030;-74
2021/09/30 04:27:41;;;;;;;5.87;3.50;;;;;;;;;;5028534;28;20687;-74
2021/09/30 04:30:07;;;;;;;5.33;2.67;;;;;;;;;;5029681;28;20029;-73
2021/09/30 04:32:33;;;;;;;5.60;3.57;;;;;;;;;;5028479;28;20056;-74
2021/09/30 04:34:58;;;;;;;8.00;3.77;;;;;;;;;;5029840;28;20025;-73
2021/09/30 04:37:25;;;;;;;8.73;3.07;;;;;;;;;;5028549;28;20489;-75
2021/09/30 04:39:51;;;;;;;11.70;3.20;;;;;;;;;;5028654;28;20025;-75
2021/09/30 04:42:17;;;;;;;13.57;3.40;;;;;;;;;;5029779;28;20028;-76
2021/09/30 04:44:42;;;;;;;10.73;3.20;;;;;;;;;;5028288;28;20471;-75
2021/09/30 04:47:08;;;;;;;7.43;4.07;;;;;;;;;;5028199;28;20035;-76
2021/09/30 04:49:34;;;;;;;18.10;7.33;;;;;;;;;;5028196;28;20021;-76
2021/09/30 04:51:59;;;;;;;6.20;3.20;;;;;;;;;;5028055;28;20384;-76
2021/09/30 04:54:25;;;;;;;6.73;4.97;;;;;;;;;;5029609;28;20145;-77
2021/09/30 04:56:50;;;;;;;10.47;4.20;;;;;;;;;;5028255;28;20033;-76
2021/09/30 04:59:17;;;;;;;5.83;3.53;;;;;;;;;;5029151;28;20025;-76
2021/09/30 05:01:42;;;;;;;6.80;3.70;;;;;;;;;;5028719;28;20555;-75
2021/09/30 05:04:08;;;;;;;10.37;3.20;;;;;;;;;;5028438;28;20105;-77
2021/09/30 05:06:33;;;;;;;9.37;4.33;;;;;;;;;;5028302;28;20029;-76
2021/09/30 05:09:00;;;;;;;14.30;4.60;;;;;;;;;;5029586;28;20393;-76
2021/09/30 05:11:32;;;;;;;8.30;4.33;;;;;;;;;;5029147;28;20045;-74
2021/09/30 05:13:58;;;;;;;7.22;4.38;;;;;;;;;;5029435;28;20024;-74
2021/09/30 05:16:24;;;;;;;9.20;5.50;;;;;;;;;;5027767;28;20179;-74
2021/09/30 05:18:53;;;;;;;7.13;4.80;;;;;;;;;;5029312;28;20029;-76
2021/09/30 05:21:19;;;;;;;10.23;3.83;;;;;;;;;;5027645;28;20029;-76
2021/09/30 05:23:44;;;;;;;7.37;3.90;;;;;;;;;;5029005;28;20056;-75
2021/09/30 05:26:10;;;;;;;21.07;5.33;;;;;;;;;;5027871;28;20045;-76
2021/09/30 05:28:35;;;;;;;18.40;5.03;;;;;;;;;;5029025;28;20025;-74
2021/09/30 05:31:01;;;;;;;22.43;16.27;;;;;;;;;;5029284;28;20076;-75
2021/09/30 05:33:27;;;;;;;11.83;5.90;;;;;;;;;;5027130;28;20056;-75
2021/09/30 05:35:53;;;;;;;16.80;4.03;;;;;;;;;;5029388;28;20042;-77
2021/09/30 05:38:20;;;;;;;8.93;3.20;;;;;;;;;;5031318;28;20026;-74
2021/09/30 05:40:48;;;;;;;10.43;3.00;;;;;;;;;;5031143;28;20033;-75
2021/09/30 05:43:21;;;;;;;5.53;2.73;;;;;;;;;;5030841;28;20418;-75
2021/09/30 05:45:52;;;;;;;12.77;3.33;;;;;;;;;;5015854;28;20029;-75
2021/09/30 05:48:18;;;;;;;12.73;3.53;;;;;;;;;;5031016;28;20397;-77
2021/09/30 05:50:44;;;;;;;9.73;4.50;;;;;;;;;;5031332;28;20037;-75
2021/09/30 05:53:09;;;;;;;12.20;4.07;;;;;;;;;;5032451;28;20468;-75
2021/09/30 05:55:34;;;;;;;15.83;5.47;;;;;;;;;;5031171;28;20132;-76
2021/09/30 05:58:00;;;;;;;6.57;3.47;;;;;;;;;;5032727;28;20068;-76
2021/09/30 06:16:16;;;;;;;7.60;3.53;;;;;;;;;;5021507;28;20026;-75
2021/09/30 06:18:42;;;;;;;6.90;3.07;;;;;;;;;;5009273;28;20526;-76
2021/09/30 06:21:08;;;;;;;12.63;3.57;;;;;;;;;;5027889;28;20025;-75
2021/09/30 06:23:33;;;;;;;11.40;3.50;;;;;;;;;;5019909;28;20036;-75
2021/09/30 06:25:59;;;;;;;91.63;10.17;;;;;;;;;;5027895;28;20025;-76
2021/09/30 06:28:24;;;;;;;12.53;5.07;;;;;;;;;;5024774;28;20029;-74
2021/09/30 06:30:51;;;;;;;12.97;3.80;;;;;;;;;;5015339;28;20137;-75
2021/09/30 06:33:17;;;;;;;16.83;4.27;;;;;;;;;;5025179;28;20040;-77
2021/09/30 06:35:43;;;;;;;6.87;3.53;;;;;;;;;;5028630;28;20033;-76
2021/09/30 06:38:09;;;;;;;10.00;3.97;;;;;;;;;;5028756;28;20033;-75
2021/09/30 06:40:35;;;;;;;11.27;3.63;;;;;;;;;;5026044;28;20257;-76
2021/09/30 06:43:00;;;;;;;13.90;5.70;;;;;;;;;;5010738;28;20519;-76
2021/09/30 06:45:26;;;;;;;10.37;4.50;;;;;;;;;;5016766;28;20171;-75
2021/09/30 06:47:52;;;;;;;14.17;3.07;;;;;;;;;;5029322;28;20041;-75
2021/09/30 06:50:17;;;;;;;8.20;2.97;;;;;;;;;;5039098;28;20029;-76
2021/09/30 06:52:43;;;;;;;10.67;3.40;;;;;;;;;;5040072;28;20029;-77
2021/09/30 06:55:11;;;;;;;8.43;2.50;;;;;;;;;;5034901;28;20037;-76
2021/09/30 06:57:37;;;;;;;8.93;2.53;;;;;;;;;;5027557;28;20029;-77
2021/09/30 07:00:09;;;;;;;7.07;3.00;;;;;;;;;;5022339;28;20311;-75
2021/09/30 07:02:40;;;;;;;16.80;3.20;;;;;;;;;;5020630;28;20029;-73
2021/09/30 07:05:09;;;;;;;16.83;3.67;;;;;;;;;;5024083;28;20056;-74
2021/09/30 07:07:35;;;;;;;9.60;3.60;;;;;;;;;;5022040;28;20048;-74
2021/09/30 07:10:03;;;;;;;17.20;4.33;;;;;;;;;;5020934;28;20549;-75
2021/09/30 07:12:28;;;;;;;8.97;3.80;;;;;;;;;;5017835;28;20037;-75
2021/09/30 07:14:54;;;;;;;15.37;5.00;;;;;;;;;;5021436;28;20040;-75
2021/09/30 07:17:20;;;;;;;13.53;3.73;;;;;;;;;;5020616;28;20114;-77
2021/09/30 07:19:46;;;;;;;14.70;4.50;;;;;;;;;;5018018;28;20484;-75
2021/09/30 07:22:11;;;;;;;11.40;4.07;;;;;;;;;;5022074;28;20033;-73
2021/09/30 07:24:37;;;;;;;8.60;4.55;;;;;;;;;;5021985;28;20045;-75
2021/09/30 07:27:09;;;;;;;15.63;4.88;;;;;;;;;;5016969;28;20073;-74
2021/09/30 07:29:34;;;;;;;13.98;5.38;;;;;;;;;;5022286;28;20029;-75
2021/09/30 07:32:02;;;;;;;9.23;4.70;;;;;;;;;;5018197;28;20374;-75
2021/09/30 07:34:28;;;;;;;12.48;5.43;;;;;;;;;;5019825;28;20085;-74
2021/09/30 07:36:57;;;;;;;9.98;5.45;;;;;;;;;;5023706;28;20061;-75
2021/09/30 07:39:23;;;;;;;13.13;5.03;;;;;;;;;;5023294;28;20452;-76
2021/09/30 07:41:51;;;;;;;11.68;5.82;;;;;;;;;;5020111;28;20025;-75
2021/09/30 07:44:18;;;;;;;9.00;4.95;;;;;;;;;;5019414;28;20032;-73
2021/09/30 07:46:45;;;;;;;9.60;4.97;;;;;;;;;;5021220;28;20687;-77
2021/09/30 07:49:12;;;;;;;11.10;5.30;;;;;;;;;;5023455;28;20033;-76
2021/09/30 07:51:41;;;;;;;16.63;6.05;;;;;;;;;;5019207;28;20029;-74
2021/09/30 07:54:07;;;;;;;20.15;5.50;;;;;;;;;;5022031;28;20556;-74
2021/09/30 07:56:33;;;;;;;19.98;6.45;;;;;;;;;;5015616;28;20489;-73
2021/09/30 07:59:01;;;;;;;12.13;5.88;;;;;;;;;;5008979;28;20040;-77
2021/09/30 08:01:27;;;;;;;8.63;4.60;;;;;;;;;;5022224;28;20049;-75
2021/09/30 08:03:54;;;;;;;8.45;4.60;;;;;;;;;;5022647;28;20254;-75
2021/09/30 08:06:20;;;;;;;11.88;6.35;;;;;;;;;;5022187;28;20037;-77
2021/09/30 08:08:46;;;;;;;10.02;4.95;;;;;;;;;;5025058;28;20401;-78
2021/09/30 08:11:12;;;;;;;8.32;4.60;;;;;;;;;;5021806;28;20041;-74
2021/09/30 08:13:41;;;;;;;18.73;5.25;;;;;;;;;;5023103;28;20059;-75
2021/09/30 08:16:07;;;;;;;10.75;4.00;;;;;;;;;;5016826;28;20378;-74
2021/09/30 08:18:35;;;;;;;26.48;9.80;;;;;;;;;;5010416;28;20040;-76
2021/09/30 08:21:02;;;;;;;11.25;5.00;;;;;;;;;;5020269;28;20064;-77
2021/09/30 08:23:28;;;;;;;8.60;3.80;;;;;;;;;;5016904;28;20029;-75
2021/09/30 08:25:54;;;;;;;7.15;3.75;;;;;;;;;;5018363;28;20116;-76
2021/09/30 08:28:20;;;;;;;6.15;4.32;;;;;;;;;;5019832;28;20389;-74
2021/09/30 08:30:47;;;;;;;7.45;5.15;;;;;;;;;;5020711;28;20549;-76
2021/09/30 08:33:24;;;;;;;7.65;4.60;;;;;;;;;;5020921;28;20385;-75
2021/09/30 08:35:50;;;;;;;10.60;3.92;;;;;;;;;;5016721;28;20039;-76
2021/09/30 08:38:16;;;;;;;10.43;4.80;;;;;;;;;;5018807;28;20781;-76
2021/09/30 08:40:42;;;;;;;11.65;4.82;;;;;;;;;;5013964;28;20102;-75
2021/09/30 08:43:07;;;;;;;9.38;3.60;;;;;;;;;;5018837;28;20025;-74
2021/09/30 08:45:33;;;;;;;15.02;4.38;;;;;;;;;;5017634;28;20492;-74
2021/09/30 08:48:04;;;;;;;6.80;3.53;;;;;;;;;;5019682;28;20030;-73
2021/09/30 08:50:38;;;;;;;11.98;3.28;;;;;;;;;;5021158;28;20859;-75
2021/09/30 08:53:10;;;;;;;8.80;3.67;;;;;;;;;;5016126;28;20049;-75
2021/09/30 08:55:37;;;;;;;19.50;3.17;;;;;;;;;;5018131;28;20108;-76
2021/09/30 08:58:03;;;;;;;11.20;3.50;;;;;;;;;;5015677;28;20037;-77
2021/09/30 09:00:30;;;;;;;7.97;3.10;;;;;;;;;;4998521;28;20421;-74
2021/09/30 09:02:57;;;;;;;15.32;2.95;;;;;;;;;;5018394;28;20068;-73
2021/09/30 09:05:23;;;;;;;12.05;4.93;;;;;;;;;;5035063;28;20103;-75
2021/09/30 09:07:59;;;;;;;11.23;4.45;;;;;;;;;;5018765;28;20366;-75
2021/09/30 09:10:31;;;;;;;10.25;3.70;;;;;;;;;;5021034;28;20358;-76
2021/09/30 09:13:04;;;;;;;10.00;2.08;;;;;;;;;;5022089;28;20033;-74
2021/09/30 09:15:37;;;;;;;8.90;3.40;;;;;;;;;;5023225;28;20082;-75
2021/09/30 09:18:24;;;;;;;8.95;2.40;;;;;;;;;;5022001;28;20369;-76
2021/09/30 09:21:06;;;;;;;4.05;1.90;;;;;;;;;;5024433;28;20029;-75
2021/09/30 09:23:34;;;;;;;7.32;2.17;;;;;;;;;;5022375;28;20740;-76
2021/09/30 09:26:16;;;;;;;10.18;2.40;;;;;;;;;;5027557;28;20084;-74
2021/09/30 09:29:10;;;;;;;5.35;2.88;;;;;;;;;;5026197;28;20075;-75
2021/09/30 09:31:38;;;;;;;8.90;2.88;;;;;;;;;;5032571;28;20037;-75
2021/09/30 09:34:22;;;;;;;4.50;2.20;;;;;;;;;;5036625;28;20128;-72
2021/09/30 09:36:51;;;;;;;5.03;2.63;;;;;;;;;;5030826;28;20068;-75
2021/09/30 09:39:31;;;;;;;5.63;2.20;;;;;;;;;;5025463;28;20044;-74
2021/09/30 09:42:17;;;;;;;6.28;2.60;;;;;;;;;;5023727;28;20041;-75
2021/09/30 09:45:05;;;;;;;12.07;3.22;;;;;;;;;;5018417;28;20061;-75
2021/09/30 09:47:36;;;;;;;8.35;2.40;;;;;;;;;;5022468;28;20068;-76
2021/09/30 09:50:16;;;;;;;7.35;3.38;;;;;;;;;;5020575;28;20033;-75
2021/09/30 09:52:45;;;;;;;7.25;2.45;;;;;;;;;;5020440;28;20038;-75
2021/09/30 09:55:32;;;;;;;8.40;2.70;;;;;;;;;;5021418;28;20052;-75
2021/09/30 09:58:03;;;;;;;9.98;2.85;;;;;;;;;;5024554;28;20037;-78
2021/09/30 10:00:35;;;;;;;3.80;2.33;;;;;;;;;;5021674;28;20084;-75
2021/09/30 10:03:18;;;;;;;14.40;2.30;;;;;;;;;;5019287;28;21128;-75
2021/09/30 10:05:45;;;;;;;8.40;3.33;;;;;;;;;;5019242;28;20025;-74
2021/09/30 10:08:12;;;;;;;8.73;2.20;;;;;;;;;;5025014;28;20037;-72
2021/09/30 10:10:38;;;;;;;7.57;2.17;;;;;;;;;;5023901;28;20045;-75
2021/09/30 10:13:05;;;;;;;5.82;2.60;;;;;;;;;;5018099;28;20041;-75
2021/09/30 10:15:32;;;;;;;2.50;2.28;;;;;;;;;;5019953;28;20127;-75
2021/09/30 10:18:01;;;;;;;4.25;2.42;;;;;;;;;;5018112;28;20065;-73
2021/09/30 10:20:27;;;;;;;8.82;2.70;;;;;;;;;;5024615;28;20037;-76
2021/09/30 10:22:54;;;;;;;5.25;1.88;;;;;;;;;;5019406;28;20033;-76
2021/09/30 10:25:21;;;;;;;7.72;2.47;;;;;;;;;;5022188;28;20059;-77
2021/09/30 10:27:56;;;;;;;6.85;2.83;;;;;;;;;;5025181;28;20037;-73
2021/09/30 10:30:31;;;;;;;3.75;2.53;;;;;;;;;;5024540;28;20746;-76
2021/09/30 10:32:59;;;;;;;3.35;2.20;;;;;;;;;;5021901;28;20378;-74
2021/09/30 10:35:37;;;;;;;7.70;2.45;;;;;;;;;;5015555;28;20119;-74
2021/09/30 10:38:23;;;;;;;6.43;2.42;;;;;;;;;;5018784;28;20037;-74
2021/09/30 10:41:09;;;;;;;5.90;2.22;;;;;;;;;;5021539;28;20128;-75
2021/09/30 10:43:41;;;;;;;4.38;2.00;;;;;;;;;;5020837;28;20504;-75
2021/09/30 10:46:30;;;;;;;14.98;7.18;;;;;;;;;;5019946;28;20065;-75
2021/09/30 10:48:57;;;;;;;10.00;4.47;;;;;;;;;;5024187;28;20136;-74
2021/09/30 10:51:23;;;;;;;7.75;3.15;;;;;;;;;;5024855;28;20049;-73
2021/09/30 10:53:49;;;;;;;6.30;2.70;;;;;;;;;;5020290;28;20060;-75
2021/09/30 10:56:24;;;;;;;3.17;1.80;;;;;;;;;;5019705;28;20094;-75
2021/09/30 10:58:50;;;;;;;4.75;1.95;;;;;;;;;;5021721;28;20029;-74
2021/09/30 11:01:17;;;;;;;5.28;2.40;;;;;;;;;;5019939;28;20029;-72
2021/09/30 11:04:05;;;;;;;6.15;1.60;;;;;;;;;;5018323;28;20029;-75
2021/09/30 11:06:31;;;;;;;7.55;2.03;;;;;;;;;;5023052;28;20132;-76
2021/09/30 11:09:20;;;;;;;6.55;1.83;;;;;;;;;;5024068;28;20195;-76
2021/09/30 11:11:53;;;;;;;4.05;1.33;;;;;;;;;;5021700;28;20032;-74
2021/09/30 11:14:25;;;;;;;15.32;1.92;;;;;;;;;;5022319;28;20132;-78
2021/09/30 11:16:54;;;;;;;;;;;;;;;;;;5025059;28;20095;-77
2021/09/30 11:19:29;;;;;;;2.63;1.40;;;;;;;;;;5024165;28;20044;-75
2021/09/30 11:21:57;;;;;;;8.80;2.10;;;;;;;;;;5024553;28;20063;-76
2021/09/30 11:24:24;;;;;;;8.25;1.60;;;;;;;;;;5026258;28;20117;-74
2021/09/30 11:26:53;;;;;;;5.18;1.08;;;;;;;;;;5033670;28;20025;-76
2021/09/30 11:29:25;;;;;;;1.60;1.48;;;;;;;;;;5026837;28;20111;-75
2021/09/30 11:31:54;;;;;;;3.72;1.20;;;;;;;;;;5019844;28;20251;-76
2021/09/30 11:34:41;;;;;;;4.22;1.40;;;;;;;;;;5019116;28;20144;-76
2021/09/30 11:37:18;;;;;;;8.50;1.23;;;;;;;;;;5020008;28;20214;-75
2021/09/30 11:39:49;;;;;;;4.88;1.60;;;;;;;;;;5021929;28;20044;-74
2021/09/30 11:42:17;;;;;;;5.35;1.35;;;;;;;;;;5020821;28;20493;-77
2021/09/30 11:45:02;;;;;;;4.93;1.83;;;;;;;;;;5021984;28;20122;-75
2021/09/30 11:47:30;;;;;;;4.25;1.20;;;;;;;;;;5015034;28;20036;-76
2021/09/30 11:49:56;;;;;;;8.82;2.28;;;;;;;;;;5019471;28;20048;-76
2021/09/30 11:52:22;;;;;;;3.97;2.03;;;;;;;;;;5021820;28;20041;-74
2021/09/30 11:54:48;;;;;;;4.55;1.15;;;;;;;;;;5025625;28;20374;-75
2021/09/30 11:57:23;;;;;;;3.03;1.08;;;;;;;;;;5024179;28;20033;-76
2021/09/30 11:59:50;;;;;;;3.25;1.48;;;;;;;;;;5015720;28;20075;-77
2021/09/30 12:02:15;;;;;;;10.25;3.92;;;;;;;;;;5021038;28;20044;-73
2021/09/30 12:04:50;;;;;;;3.97;1.45;;;;;;;;;;5022535;28;20036;-76
2021/09/30 12:07:18;;;;;;;11.48;4.30;;;;;;;;;;5020640;28;20036;-75
2021/09/30 12:09:44;;;;;;;4.13;1.65;;;;;;;;;;5021114;28;20611;-74
2021/09/30 12:12:10;;;;;;;8.43;1.70;;;;;;;;;;5004253;28;20717;-74
2021/09/30 12:14:40;;;;;;;6.40;1.50;;;;;;;;;;5002656;28;20053;-76
2021/09/30 12:17:12;;;;;;;4.97;1.40;;;;;;;;;;5017144;28;20037;-75
2021/09/30 12:19:42;;;;;;;5.18;1.55;;;;;;;;;;5019458;28;20029;-72
2021/09/30 12:22:15;;;;;;;4.40;1.20;;;;;;;;;;5018610;28;20037;-75
2021/09/30 12:24:52;;;;;;;7.28;1.40;;;;;;;;;;5018322;28;20036;-76
2021/09/30 12:27:21;;;;;;;2.38;1.25;;;;;;;;;;5017117;28;20060;-74
2021/09/30 12:29:49;;;;;;;4.10;1.20;;;;;;;;;;5018501;28;20037;-75
2021/09/30 12:32:19;;;;;;;11.20;1.52;;;;;;;;;;5014044;28;20032;-74
2021/09/30 12:35:00;;;;;;;2.92;1.60;;;;;;;;;;5017109;28;20057;-75
2021/09/30 12:37:34;;;;;;;2.13;1.10;;;;;;;;;;5018490;28;20160;-77
2021/09/30 12:40:07;;;;;;;6.40;2.25;;;;;;;;;;5016116;28;20844;-75
2021/09/30 12:42:33;;;;;;;6.60;1.25;;;;;;;;;;5017936;28;20041;-76
2021/09/30 12:45:00;;;;;;;6.03;1.30;;;;;;;;;;5014059;28;20035;-75
2021/09/30 12:47:42;;;;;;;2.17;1.38;;;;;;;;;;5019050;28;20026;-75
2021/09/30 12:50:15;;;;;;;6.05;1.85;;;;;;;;;;5018110;28;20111;-75
2021/09/30 12:52:42;;;;;;;4.57;1.70;;;;;;;;;;5019581;28;20056;-77
2021/09/30 12:55:21;;;;;;;5.43;1.45;;;;;;;;;;5016574;28;20552;-74
2021/09/30 12:57:48;;;;;;;5.00;1.70;;;;;;;;;;5018311;28;20116;-75
2021/09/30 13:00:17;;;;;;;9.18;2.60;;;;;;;;;;5019356;28;20041;-75
2021/09/30 13:02:46;;;;;;;12.20;3.13;;;;;;;;;;5018608;28;20055;-77
2021/09/30 13:05:12;;;;;;;4.90;1.75;;;;;;;;;;5013489;28;20107;-78
2021/09/30 13:07:45;;;;;;;7.18;1.45;;;;;;;;;;5017671;28;20789;-75
2021/09/30 13:10:11;;;;;;;9.57;2.30;;;;;;;;;;5016106;28;20025;-73
2021/09/30 13:12:39;;;;;;;3.63;1.20;;;;;;;;;;5015397;28;20057;-74
2021/09/30 13:15:05;;;;;;;4.18;1.20;;;;;;;;;;5016523;28;20031;-73
2021/09/30 13:17:32;;;;;;;3.65;1.55;;;;;;;;;;5018436;28;20037;-73
2021/09/30 13:20:07;;;;;;;6.70;1.20;;;;;;;;;;5013838;28;20150;-73
2021/09/30 13:22:41;;;;;;;4.32;1.70;;;;;;;;;;5032406;28;20041;-72
2021/09/30 13:25:14;;;;;;;5.25;1.70;;;;;;;;;;5015968;28;20040;-74
2021/09/30 13:27:41;;;;;;;4.15;1.15;;;;;;;;;;5019554;28;20532;-73
2021/09/30 13:30:10;;;;;;;5.60;2.30;;;;;;;;;;5016782;28;20033;-73
2021/09/30 13:32:36;;;;;;;4.85;1.70;;;;;;;;;;5016872;28;20029;-73
2021/09/30 13:35:03;;;;;;;3.13;1.00;;;;;;;;;;5020675;28;20049;-73
2021/09/30 13:37:29;;;;;;;16.15;1.52;;;;;;;;;;5023188;28;20083;-72
2021/09/30 13:39:56;;;;;;;5.07;1.50;;;;;;;;;;5021151;28;20071;-72
2021/09/30 13:42:26;;;;;;;12.13;1.65;;;;;;;;;;5017022;28;20033;-72
2021/09/30 13:44:52;;;;;;;3.00;1.40;;;;;;;;;;5012406;28;20250;-73
2021/09/30 13:47:18;;;;;;;5.45;1.55;;;;;;;;;;5010976;28;20064;-73
2021/09/30 13:49:44;;;;;;;3.35;1.20;;;;;;;;;;5016367;28;20116;-72
2021/09/30 13:52:10;;;;;;;7.80;1.45;;;;;;;;;;5016065;28;20099;-72
2021/09/30 13:54:36;;;;;;;6.90;1.48;;;;;;;;;;5018748;28;20033;-72
2021/09/30 13:57:02;;;;;;;9.88;2.10;;;;;;;;;;5020829;28;20033;-74
2021/09/30 13:59:27;;;;;;;4.50;1.15;;;;;;;;;;5020718;28;20036;-73
2021/09/30 14:01:53;;;;;;;12.13;4.20;;;;;;;;;;5016384;28;20029;-73
2021/09/30 14:04:19;;;;;;;6.93;1.90;;;;;;;;;;5021731;28;20612;-73
2021/09/30 14:06:44;;;;;;;3.03;1.55;;;;;;;;;;5026609;28;20021;-75
2021/09/30 14:09:10;;;;;;;5.97;1.40;;;;;;;;;;5022185;28;20071;-75
2021/09/30 14:11:36;;;;;;;5.57;2.03;;;;;;;;;;5024587;28;20068;-73
2021/09/30 14:14:01;;;;;;;3.13;1.13;;;;;;;;;;5024725;28;20029;-73
2021/09/30 14:16:27;;;;;;;6.63;1.55;;;;;;;;;;5020963;28;20030;-74
2021/09/30 14:18:52;;;;;;;4.45;1.98;;;;;;;;;;5024241;28;20029;-74
2021/09/30 14:21:19;;;;;;;3.60;1.17;;;;;;;;;;5020556;28;20099;-76
2021/09/30 14:23:46;;;;;;;4.22;0.77;;;;;;;;;;5024007;28;20032;-73
2021/09/30 14:26:13;;;;;;;4.20;0.80;;;;;;;;;;5023201;28;20142;-74
2021/09/30 14:28:39;;;;;;;3.17;1.80;;;;;;;;;;5021596;28;20102;-73
2021/09/30 14:31:05;;;;;;;6.15;1.27;;;;;;;;;;5025927;28;20649;-73
2021/09/30 14:33:32;;;;;;;5.18;2.22;;;;;;;;;;5024441;28;20147;-74
2021/09/30 14:35:58;;;;;;;3.25;0.90;;;;;;;;;;5020694;28;20033;-73
2021/09/30 14:38:24;;;;;;;7.88;3.78;;;;;;;;;;5019321;28;20041;-73
2021/09/30 14:40:51;;;;;;;5.30;1.85;;;;;;;;;;5021427;28;20037;-73
2021/09/30 14:43:22;;;;;;;3.15;0.80;;;;;;;;;;5018774;28;20049;-73
2021/09/30 14:45:50;;;;;;;2.45;0.82;;;;;;;;;;5021097;28;20030;-73
2021/09/30 14:48:20;;;;;;;7.03;1.10;;;;;;;;;;5021100;28;20044;-73
2021/09/30 14:50:46;;;;;;;1.35;0.80;;;;;;;;;;5020282;28;20025;-73
2021/09/30 14:53:13;;;;;;;3.17;1.13;;;;;;;;;;5018629;28;20056;-73
2021/09/30 14:55:38;;;;;;;2.55;1.23;;;;;;;;;;5020344;28;20078;-72
2021/09/30 14:58:06;;;;;;;2.70;0.90;;;;;;;;;;5018543;28;20029;-73
2021/09/30 15:00:32;;;;;;;1.52;1.20;;;;;;;;;;5020035;28;20754;-73
2021/09/30 15:02:57;;;;;;;6.60;1.48;;;;;;;;;;5017632;28;20148;-73
2021/09/30 15:05:23;;;;;;;5.85;1.45;;;;;;;;;;5018964;28;20374;-72
2021/09/30 15:07:49;;;;;;;2.08;0.90;;;;;;;;;;5018498;28;20018;-73
2021/09/30 15:10:15;;;;;;;4.82;1.10;;;;;;;;;;5022132;28;20148;-72
2021/09/30 15:12:40;;;;;;;1.65;0.82;;;;;;;;;;5037998;28;20026;-73
2021/09/30 15:15:07;;;;;;;4.95;1.15;;;;;;;;;;5039654;28;20025;-72
2021/09/30 15:22:38;;;;;;;1.67;1.20;;;;;;;;;;5037582;28;20423;-72
2021/09/30 15:25:05;;;;;;;10.88;3.08;;;;;;;;;;5020181;28;20040;-73
2021/09/30 15:27:31;;;;;;;5.60;2.05;;;;;;;;;;5039785;28;20080;-73
2021/09/30 15:29:57;;;;;;;1.00;0.82;;;;;;;;;;5041826;28;20427;-72
2021/09/30 15:32:22;;;;;;;59.65;6.25;;;;;;;;;;5027238;28;20128;-73
2021/09/30 15:34:49;;;;;;;2.72;0.95;;;;;;;;;;5033179;28;20056;-73
2021/09/30 15:37:16;;;;;;;7.85;1.20;;;;;;;;;;5023906;28;20489;-73
2021/09/30 15:39:41;;;;;;;7.88;1.90;;;;;;;;;;5022891;28;20033;-72
2021/09/30 15:42:11;;;;;;;7.15;1.95;;;;;;;;;;5033139;28;20026;-73
2021/09/30 15:44:37;;;;;;;6.60;3.05;;;;;;;;;;5045427;28;20082;-73
2021/09/30 15:47:04;;;;;;;8.80;1.70;;;;;;;;;;5029794;28;20152;-72
2021/09/30 15:49:30;;;;;;;9.82;3.10;;;;;;;;;;5045500;28;20112;-73
2021/09/30 15:51:55;;;;;;;3.90;1.40;;;;;;;;;;5019808;28;20513;-73
2021/09/30 15:54:21;;;;;;;20.63;2.67;;;;;;;;;;5028316;28;20041;-74
2021/09/30 15:56:46;;;;;;;5.15;1.00;;;;;;;;;;5027435;28;20030;-72
2021/09/30 15:59:12;;;;;;;2.85;1.55;;;;;;;;;;5026682;28;20030;-73
2021/09/30 16:01:37;;;;;;;4.55;1.40;;;;;;;;;;5028717;28;20033;-72
2021/09/30 16:04:03;;;;;;;5.70;1.70;;;;;;;;;;5028851;28;20048;-73
2021/09/30 16:06:29;;;;;;;5.72;2.67;;;;;;;;;;5028790;28;20034;-72
2021/09/30 16:08:55;;;;;;;7.95;1.80;;;;;;;;;;5029314;28;20029;-71
2021/09/30 16:11:21;;;;;;;6.47;1.17;;;;;;;;;;5031359;28;20401;-73
2021/09/30 16:13:47;;;;;;;4.43;1.98;;;;;;;;;;5031319;28;20025;-72
2021/09/30 16:16:13;;;;;;;8.88;1.98;;;;;;;;;;5030272;28;20057;-72
2021/09/30 16:18:40;;;;;;;9.60;2.53;;;;;;;;;;5030076;28;20025;-72
2021/09/30 16:21:09;;;;;;;3.92;1.77;;;;;;;;;;5028478;28;20025;-73
2021/09/30 16:23:35;;;;;;;3.17;1.60;;;;;;;;;;5029320;28;20056;-75
2021/09/30 16:26:01;;;;;;;3.38;1.50;;;;;;;;;;5012377;28;20029;-72
2021/09/30 16:28:27;;;;;;;6.10;2.53;;;;;;;;;;5029591;28;20032;-72
2021/09/30 16:30:53;;;;;;;7.30;2.72;;;;;;;;;;5012267;28;20025;-72
2021/09/30 16:33:23;;;;;;;27.60;6.70;;;;;;;;;;5029229;28;20406;-73
2021/09/30 16:35:49;;;;;;;7.50;2.70;;;;;;;;;;5028327;28;20025;-72
2021/09/30 16:38:17;;;;;;;15.45;5.13;;;;;;;;;;5029041;28;20025;-73
2021/09/30 16:40:43;;;;;;;7.88;1.83;;;;;;;;;;5028485;28;20112;-72
2021/09/30 16:43:09;;;;;;;8.27;2.13;;;;;;;;;;5029491;28;20053;-72
2021/09/30 16:45:34;;;;;;;9.90;2.22;;;;;;;;;;5027818;28;20118;-74
2021/09/30 16:48:00;;;;;;;15.35;3.28;;;;;;;;;;5028274;28;20025;-73
2021/09/30 16:50:26;;;;;;;5.20;2.08;;;;;;;;;;5029662;28;20035;-73
2021/09/30 16:52:51;;;;;;;11.52;3.45;;;;;;;;;;5028186;28;20489;-71
2021/09/30 16:55:18;;;;;;;9.00;3.25;;;;;;;;;;5028901;28;20061;-73
2021/09/30 16:57:45;;;;;;;14.55;3.15;;;;;;;;;;5029179;28;20026;-72
2021/09/30 17:00:13;;;;;;;10.82;2.53;;;;;;;;;;5027855;28;20060;-73
2021/09/30 17:02:38;;;;;;;7.22;2.70;;;;;;;;;;5029188;28;20026;-73
2021/09/30 17:05:06;;;;;;;10.10;2.85;;;;;;;;;;5027743;28;20465;-73
2021/09/30 17:07:31;;;;;;;15.18;3.30;;;;;;;;;;5011273;28;20068;-73
2021/09/30 17:09:57;;;;;;;13.32;2.58;;;;;;;;;;5028264;28;20446;-72
2021/09/30 17:12:24;;;;;;;32.28;4.63;;;;;;;;;;5027650;28;20401;-72
2021/09/30 17:14:49;;;;;;;8.85;2.88;;;;;;;;;;5028185;28;20051;-73
2021/09/30 17:17:15;;;;;;;9.55;2.20;;;;;;;;;;5028077;28;20401;-74
2021/09/30 17:19:40;;;;;;;14.27;3.40;;;;;;;;;;5029635;28;20132;-73
2021/09/30 17:22:06;;;;;;;10.48;3.20;;;;;;;;;;5029322;28;20040;-73
2021/09/30 17:24:33;;;;;;;7.10;2.97;;;;;;;;;;5028921;28;20033;-71
2021/09/30 17:27:01;;;;;;;8.52;4.25;;;;;;;;;;5027907;28;20041;-73
2021/09/30 17:29:28;;;;;;;16.00;4.03;;;;;;;;;;5027717;28;20028;-73
2021/09/30 17:31:55;;;;;;;5.63;2.60;;;;;;;;;;5029695;28;20485;-73
2021/09/30 17:34:21;;;;;;;14.38;2.88;;;;;;;;;;5031151;28;20049;-72
2021/09/30 17:36:47;;;;;;;19.77;3.25;;;;;;;;;;5015035;28;20037;-74
2021/09/30 17:39:13;;;;;;;8.80;3.03;;;;;;;;;;5031786;28;20057;-72
2021/09/30 17:41:38;;;;;;;11.45;3.63;;;;;;;;;;5033055;28;20048;-72
2021/09/30 17:44:04;;;;;;;28.83;11.70;;;;;;;;;;5032966;28;20473;-72
2021/09/30 17:46:30;;;;;;;7.63;3.40;;;;;;;;;;5031036;28;20028;-71
2021/09/30 17:48:55;;;;;;;20.10;5.95;;;;;;;;;;5033787;28;20036;-71
2021/09/30 17:51:21;;;;;;;9.38;2.90;;;;;;;;;;5032960;28;20057;-73
2021/09/30 17:53:46;;;;;;;6.22;2.55;;;;;;;;;;5033314;28;20033;-72